Time;durP1;ratioP1;P1;durP2;ratioP2;P2;SDS_P1;SDS_P2;PMS_P1;PMS_P2;Temp;Humidity;BMP_temperature;BMP_pressure;BME280_temperature;BME280_humidity;BME280_pressure;Samples;Min_cycle;Max_cycle;Signal;HPM_P1;HPM_P2
2020/12/21 00:01:30;;;;;;;30.90;20.35;;;;;;;10.29;73.06;101514.69;4972887;28;97099;-74
2020/12/21 00:03:56;;;;;;;32.00;20.55;;;;;;;10.31;72.96;101513.75;4972983;28;98822;-73
2020/12/21 00:06:23;;;;;;;34.47;20.73;;;;;;;10.33;72.81;101521.50;4972135;28;98949;-73
2020/12/21 00:08:49;;;;;;;34.85;22.20;;;;;;;10.22;72.93;101513.97;4973250;28;96615;-72
2020/12/21 00:11:15;;;;;;;30.15;19.58;;;;;;;10.14;73.69;101505.53;4972805;28;97362;-70
2020/12/21 00:13:44;;;;;;;34.13;20.40;;;;;;;10.29;72.80;101505.13;4971199;28;98517;-69
2020/12/21 00:16:11;;;;;;;32.20;19.75;;;;;;;10.21;72.75;101504.44;4970743;28;98480;-69
2020/12/21 00:18:40;;;;;;;30.77;20.27;;;;;;;10.18;73.26;101500.19;4969895;28;97036;-69
2020/12/21 00:21:08;;;;;;;29.95;19.13;;;;;;;10.13;72.99;101499.47;4969877;28;96936;-69
2020/12/21 00:23:35;;;;;;;34.78;20.10;;;;;;;10.02;74.18;101495.44;4970028;28;98589;-71
2020/12/21 00:26:01;;;;;;;31.30;20.98;;;;;;;9.95;74.95;101499.94;4970157;28;98682;-70
2020/12/21 00:28:27;;;;;;;30.85;19.77;;;;;;;9.95;74.50;101500.81;4970487;28;97147;-70
2020/12/21 00:30:54;;;;;;;31.92;20.73;;;;;;;9.91;74.92;101499.19;4971310;28;96714;-70
2020/12/21 00:33:32;;;;;;;31.25;20.88;;;;;;;9.93;74.73;101497.41;4971647;28;98611;-71
2020/12/21 00:35:58;;;;;;;27.83;18.52;;;;;;;9.88;74.92;101485.41;4955304;28;98441;-72
2020/12/21 00:38:24;;;;;;;28.48;19.63;;;;;;;9.87;75.08;101479.34;4972423;28;96672;-73
2020/12/21 00:40:51;;;;;;;30.88;21.30;;;;;;;10.02;74.17;101488.47;4971474;28;97586;-72
2020/12/21 00:43:17;;;;;;;29.42;19.00;;;;;;;9.93;74.82;101494.78;4971910;28;99143;-69
2020/12/21 00:45:44;;;;;;;31.55;22.40;;;;;;;9.90;74.68;101494.88;4972123;28;98638;-69
2020/12/21 00:48:11;;;;;;;28.45;19.88;;;;;;;9.93;75.08;101500.00;4954360;28;97845;-69
2020/12/21 00:50:37;;;;;;;30.13;21.02;;;;;;;9.90;75.38;101494.88;4954664;28;97021;-73
2020/12/21 00:53:03;;;;;;;30.40;19.10;;;;;;;9.93;74.96;101491.34;4971569;28;98504;-74
2020/12/21 00:55:30;;;;;;;28.15;19.38;;;;;;;9.88;75.07;101488.84;4972188;28;98564;-73
2020/12/21 00:57:56;;;;;;;26.73;19.08;;;;;;;9.91;74.73;101482.72;4954858;28;96649;-73
2020/12/21 01:00:23;;;;;;;28.90;19.48;;;;;;;9.87;75.40;101481.94;4972021;28;96681;-72
2020/12/21 01:02:49;;;;;;;28.30;20.13;;;;;;;9.87;75.32;101489.75;4971398;28;98628;-72
2020/12/21 01:05:15;;;;;;;27.52;17.60;;;;;;;9.86;75.30;101489.81;4971403;28;98770;-73
2020/12/21 01:07:42;;;;;;;28.27;18.67;;;;;;;9.88;75.02;101495.81;4971894;28;98646;-73
2020/12/21 01:10:08;;;;;;;26.13;18.45;;;;;;;9.83;75.28;101495.09;4970867;28;97059;-74
2020/12/21 01:12:34;;;;;;;28.70;18.33;;;;;;;9.95;74.66;101503.41;4971561;28;98975;-73
2020/12/21 01:15:01;;;;;;;25.98;17.55;;;;;;;9.88;74.71;101498.41;4971773;28;98415;-72
2020/12/21 01:17:31;;;;;;;26.45;18.92;;;;;;;9.84;75.16;101500.25;4971285;28;96788;-73
2020/12/21 01:19:59;;;;;;;25.70;17.35;;;;;;;9.92;74.93;101500.91;4972376;28;96666;-74
2020/12/21 01:22:26;;;;;;;30.98;20.08;;;;;;;9.95;74.27;101500.81;4970211;28;98519;-75
2020/12/21 01:24:52;;;;;;;27.25;18.17;;;;;;;10.08;73.43;101510.91;4951928;28;97517;-75
2020/12/21 01:27:18;;;;;;;29.30;18.95;;;;;;;9.87;74.92;101507.13;4969156;28;96788;-74
2020/12/21 01:29:45;;;;;;;29.77;18.40;;;;;;;9.87;74.98;101513.19;4969580;28;97555;-74
2020/12/21 01:32:11;;;;;;;26.45;18.17;;;;;;;9.83;75.01;101505.50;4968620;28;98977;-74
2020/12/21 01:34:38;;;;;;;26.80;18.10;;;;;;;9.79;75.48;101509.94;4968905;28;98784;-75
2020/12/21 01:37:04;;;;;;;29.48;19.75;;;;;;;9.76;75.53;101494.41;4969767;28;97222;-74
2020/12/21 01:39:31;;;;;;;33.33;21.15;;;;;;;9.74;75.29;101496.16;4971350;28;97087;-74
2020/12/21 01:41:57;;;;;;;30.05;19.45;;;;;;;9.78;75.21;101508.22;4971795;28;98628;-74
2020/12/21 01:44:24;;;;;;;27.58;19.30;;;;;;;9.85;75.33;101508.91;4970607;28;98603;-74
2020/12/21 01:46:50;;;;;;;26.33;19.30;;;;;;;9.91;74.68;101508.78;4971866;28;96625;-74
2020/12/21 01:49:17;;;;;;;27.58;18.02;;;;;;;9.84;75.18;101517.63;4953812;28;97886;-74
2020/12/21 01:51:43;;;;;;;28.45;18.25;;;;;;;9.71;76.07;101517.94;4971086;28;98527;-75
2020/12/21 01:54:10;;;;;;;27.52;19.65;;;;;;;9.70;76.16;101513.66;4953309;28;98461;-74
2020/12/21 01:56:36;;;;;;;22.08;16.20;;;;;;;9.77;75.97;101518.69;4937358;28;96649;-74
2020/12/21 01:59:03;;;;;;;27.98;17.30;;;;;;;9.77;75.98;101516.94;4971204;28;96672;-74
2020/12/21 02:01:30;;;;;;;27.85;18.58;;;;;;;9.78;76.00;101525.59;4953676;28;98609;-74
2020/12/21 02:03:56;;;;;;;28.23;19.33;;;;;;;9.86;75.58;101526.28;4921576;28;100230;-74
2020/12/21 02:06:23;;;;;;;24.70;17.67;;;;;;;9.86;75.19;101527.13;4970400;28;96548;-73
2020/12/21 02:08:49;;;;;;;26.10;17.42;;;;;;;9.88;75.07;101517.50;4964831;28;97718;-73
2020/12/21 02:11:16;;;;;;;26.45;18.23;;;;;;;9.96;74.73;101528.59;4959266;28;98580;-73
2020/12/21 02:13:42;;;;;;;25.55;16.90;;;;;;;9.97;74.92;101530.28;4958659;28;98683;-73
2020/12/21 02:16:14;;;;;;;26.23;17.55;;;;;;;10.02;74.49;101529.31;4928971;28;100886;-73
2020/12/21 02:18:41;;;;;;;21.17;16.83;;;;;;;10.08;73.96;101518.72;4959955;28;97236;-73
2020/12/21 02:21:08;;;;;;;29.10;18.50;;;;;;;10.09;73.51;101523.03;4957057;28;99493;-73
2020/12/21 02:23:35;;;;;;;23.08;17.35;;;;;;;10.10;73.58;101522.97;4959364;28;98434;-73
2020/12/21 02:26:01;;;;;;;25.63;17.48;;;;;;;10.14;73.44;101510.72;4963499;28;97775;-73
2020/12/21 02:28:28;;;;;;;25.35;17.55;;;;;;;10.01;74.25;101507.59;4960446;28;97480;-73
2020/12/21 02:30:54;;;;;;;29.52;19.50;;;;;;;9.90;74.77;101502.69;4944516;28;99131;-73
2020/12/21 02:33:21;;;;;;;22.38;15.85;;;;;;;10.08;73.83;101496.13;4960123;28;98782;-72
2020/12/21 02:35:47;;;;;;;26.80;19.27;;;;;;;10.06;73.71;101497.03;4959405;28;97451;-73
2020/12/21 02:38:14;;;;;;;22.05;17.10;;;;;;;9.97;73.98;101499.03;4956722;28;97201;-73
2020/12/21 02:40:41;;;;;;;23.67;17.67;;;;;;;9.98;74.14;101499.88;4960484;28;98964;-73
2020/12/21 02:43:21;;;;;;;22.17;16.15;;;;;;;9.93;74.59;101500.00;4957855;28;98474;-72
2020/12/21 02:45:48;;;;;;;23.58;17.27;;;;;;;9.85;75.01;101504.56;4962129;28;96909;-71
2020/12/21 02:48:14;;;;;;;21.05;15.90;;;;;;;9.85;74.91;101499.34;4954486;28;96835;-71
2020/12/21 02:50:41;;;;;;;21.77;16.08;;;;;;;9.83;75.54;101498.53;4957207;28;100340;-72
2020/12/21 02:53:07;;;;;;;22.27;15.98;;;;;;;9.87;74.46;101505.38;4955236;28;99102;-72
2020/12/21 02:55:34;;;;;;;22.05;16.60;;;;;;;9.81;75.16;101499.50;4959860;28;97829;-71
2020/12/21 02:58:00;;;;;;;25.92;17.00;;;;;;;9.75;75.76;101497.91;4960202;28;96696;-72
2020/12/21 03:00:27;;;;;;;22.63;15.70;;;;;;;9.73;75.55;101501.44;4961507;28;98604;-73
2020/12/21 03:02:54;;;;;;;23.38;17.55;;;;;;;9.80;75.33;101500.34;4956952;28;98422;-73
2020/12/21 03:05:20;;;;;;;24.30;17.85;;;;;;;9.83;75.10;101511.56;4959890;28;96687;-73
2020/12/21 03:07:46;;;;;;;20.45;16.80;;;;;;;9.78;75.42;101513.44;4957255;28;99415;-72
2020/12/21 03:10:13;;;;;;;24.77;17.80;;;;;;;9.68;75.98;101511.97;4957954;28;99156;-72
2020/12/21 03:12:39;;;;;;;23.05;15.88;;;;;;;9.79;75.46;101506.47;4956751;28;99133;-72
2020/12/21 03:15:05;;;;;;;21.83;16.38;;;;;;;9.92;74.01;101500.91;4959452;28;97506;-70
2020/12/21 03:17:32;;;;;;;25.17;17.67;;;;;;;9.91;74.10;101509.63;4961363;28;96901;-70
2020/12/21 03:19:58;;;;;;;27.83;17.38;;;;;;;9.89;74.12;101498.38;4953895;28;98935;-71
2020/12/21 03:22:24;;;;;;;30.50;17.35;;;;;;;9.73;74.81;101504.88;4957223;28;98477;-71
2020/12/21 03:24:51;;;;;;;27.60;17.77;;;;;;;9.65;75.64;101499.91;4960586;28;96839;-70
2020/12/21 03:27:17;;;;;;;22.13;18.60;;;;;;;9.60;75.69;101493.94;4956419;28;97568;-70
2020/12/21 03:29:44;;;;;;;22.85;17.40;;;;;;;9.63;75.93;101499.06;4955014;28;98943;-70
2020/12/21 03:32:10;;;;;;;31.70;18.80;;;;;;;9.59;75.69;101494.84;4955783;28;98465;-69
2020/12/21 03:34:36;;;;;;;24.17;18.27;;;;;;;9.58;75.83;101494.88;4958189;28;99726;-72
2020/12/21 03:37:04;;;;;;;23.55;16.60;;;;;;;9.52;76.21;101492.44;4955743;28;96739;-72
2020/12/21 03:39:30;;;;;;;23.85;17.63;;;;;;;9.72;75.04;101503.19;4957202;28;98647;-72
2020/12/21 03:41:56;;;;;;;20.58;15.98;;;;;;;9.70;75.53;101499.78;4957189;28;98580;-72
2020/12/21 03:44:23;;;;;;;24.27;17.50;;;;;;;9.62;75.74;101506.91;4957962;28;99077;-72
2020/12/21 03:46:50;;;;;;;22.30;17.48;;;;;;;9.65;75.85;101507.69;4958480;28;97587;-72
2020/12/21 03:49:16;;;;;;;21.23;16.02;;;;;;;9.72;75.32;101508.38;4958361;28;98491;-72
2020/12/21 03:51:42;;;;;;;26.08;17.92;;;;;;;9.62;75.85;101501.72;4958700;28;98487;-72
2020/12/21 03:54:09;;;;;;;20.88;15.68;;;;;;;9.56;76.06;101502.72;4962053;28;97281;-73
2020/12/21 03:56:35;;;;;;;21.17;15.73;;;;;;;9.56;76.32;101496.66;4959788;28;98019;-72
2020/12/21 03:59:01;;;;;;;23.33;16.35;;;;;;;9.56;76.43;101489.72;4959965;28;98912;-72
2020/12/21 04:01:28;;;;;;;22.95;16.00;;;;;;;9.63;76.13;101487.78;4958764;28;98609;-72
2020/12/21 04:03:54;;;;;;;20.88;16.98;;;;;;;9.69;75.45;101501.53;4957199;28;96656;-72
2020/12/21 04:06:20;;;;;;;20.63;16.38;;;;;;;9.77;75.04;101503.91;4963474;28;97182;-72
2020/12/21 04:08:47;;;;;;;21.25;15.23;;;;;;;9.85;74.42;101503.69;4956266;28;98480;-72
2020/12/21 04:11:13;;;;;;;23.20;16.90;;;;;;;9.84;74.56;101513.25;4944418;28;98394;-71
2020/12/21 04:13:40;;;;;;;23.33;15.95;;;;;;;9.75;75.21;101508.31;4961087;28;99712;-72
2020/12/21 04:16:07;;;;;;;25.38;16.80;;;;;;;9.68;75.63;101512.81;4959887;28;100208;-72
2020/12/21 04:18:33;;;;;;;22.05;15.98;;;;;;;9.63;75.94;101516.44;4964733;28;98525;-72
2020/12/21 04:20:59;;;;;;;21.98;15.43;;;;;;;9.59;76.29;101509.63;4964231;28;99508;-72
2020/12/21 04:23:26;;;;;;;18.45;14.77;;;;;;;9.64;76.12;101513.81;4963454;28;97187;-72
2020/12/21 04:25:54;;;;;;;18.50;13.85;;;;;;;9.63;76.22;101509.47;4955870;28;97201;-72
2020/12/21 04:28:20;;;;;;;21.55;15.18;;;;;;;9.65;75.81;101501.66;4963232;28;99240;-74
2020/12/21 04:30:47;;;;;;;20.83;15.90;;;;;;;9.57;76.45;101506.19;4958016;28;98650;-73
2020/12/21 04:33:13;;;;;;;22.50;14.93;;;;;;;9.58;76.39;101508.72;4960002;28;97107;-73
2020/12/21 04:35:42;;;;;;;19.10;14.65;;;;;;;9.70;75.53;101523.22;4961706;28;97618;-73
2020/12/21 04:38:08;;;;;;;19.90;14.85;;;;;;;9.83;74.74;101523.72;4961037;28;99327;-74
2020/12/21 04:40:35;;;;;;;16.98;12.88;;;;;;;9.86;74.18;101527.13;4958732;28;98463;-73
2020/12/21 04:43:01;;;;;;;17.48;13.38;;;;;;;9.83;74.36;101528.94;4961446;28;96786;-73
2020/12/21 04:45:31;;;;;;;17.08;12.70;;;;;;;9.87;74.08;101534.03;4946278;28;99823;-73
2020/12/21 04:47:57;;;;;;;15.43;12.80;;;;;;;9.79;74.21;101530.75;4929733;28;98600;-73
2020/12/21 04:50:32;;;;;;;14.20;11.27;;;;;;;9.76;74.38;101530.84;4925522;28;98560;-74
2020/12/21 04:52:58;;;;;;;14.25;12.38;;;;;;;9.62;75.22;101539.00;4944577;28;97648;-72
2020/12/21 04:55:25;;;;;;;18.08;12.30;;;;;;;9.67;74.85;101524.13;4971760;28;96902;-73
2020/12/21 04:58:01;;;;;;;13.90;11.55;;;;;;;9.68;74.46;101524.97;4972539;28;98467;-73
2020/12/21 05:00:30;;;;;;;15.02;12.82;;;;;;;9.71;74.54;101525.78;4971882;28;98607;-72
2020/12/21 05:02:57;;;;;;;17.73;12.48;;;;;;;9.67;75.04;101531.09;4972244;28;96923;-71
2020/12/21 05:05:41;;;;;;;15.07;12.15;;;;;;;9.65;74.90;101525.94;4972420;28;96632;-72
2020/12/21 05:08:09;;;;;;;15.48;11.70;;;;;;;9.71;74.63;101523.16;4971914;28;98887;-73
2020/12/21 05:10:40;;;;;;;18.50;12.63;;;;;;;9.70;74.33;101515.41;4971161;28;98402;-71
2020/12/21 05:13:07;;;;;;;17.13;13.85;;;;;;;9.71;74.35;101511.91;4950725;28;97760;-71
2020/12/21 05:15:33;;;;;;;12.70;10.77;;;;;;;9.71;74.27;101517.09;4942098;28;96735;-72
2020/12/21 05:18:03;;;;;;;16.33;12.73;;;;;;;9.63;74.78;101519.03;4970593;28;98800;-72
2020/12/21 05:20:30;;;;;;;17.08;12.65;;;;;;;9.53;75.66;101517.56;4971380;28;98616;-73
2020/12/21 05:22:56;;;;;;;19.63;13.60;;;;;;;9.57;75.38;101508.78;4971822;28;96646;-72
2020/12/21 05:25:22;;;;;;;16.48;12.70;;;;;;;9.77;74.40;101505.66;4971502;28;96692;-72
2020/12/21 05:27:49;;;;;;;16.10;13.50;;;;;;;9.70;74.69;101510.19;4954030;28;98719;-72
2020/12/21 05:30:15;;;;;;;18.00;14.35;;;;;;;9.84;73.57;101508.06;4971442;28;98618;-72
2020/12/21 05:32:42;;;;;;;15.98;13.60;;;;;;;9.87;73.10;101507.13;4954245;28;96752;-72
2020/12/21 05:35:10;;;;;;;14.95;12.35;;;;;;;9.88;73.08;101503.63;4950679;28;96678;-72
2020/12/21 05:37:38;;;;;;;15.30;11.77;;;;;;;9.71;74.36;101506.69;4933971;28;98681;-72
2020/12/21 05:40:05;;;;;;;14.57;11.57;;;;;;;9.78;73.61;101510.81;4953450;28;99671;-72
2020/12/21 05:42:31;;;;;;;12.75;10.80;;;;;;;9.76;73.71;101502.22;4959756;28;96728;-72
2020/12/21 05:44:58;;;;;;;14.50;12.85;;;;;;;9.73;73.98;101502.28;4963777;28;96853;-73
2020/12/21 05:47:25;;;;;;;15.10;10.77;;;;;;;9.84;73.24;101488.97;4961022;28;98682;-73
2020/12/21 05:49:52;;;;;;;13.40;11.18;;;;;;;9.83;73.01;101497.69;4958412;28;98431;-73
2020/12/21 05:52:36;;;;;;;13.85;12.48;;;;;;;9.90;72.49;101497.47;4957987;28;97534;-73
2020/12/21 05:55:10;;;;;;;16.02;11.88;;;;;;;9.87;72.70;101501.94;4961752;28;97290;-73
2020/12/21 05:57:37;;;;;;;14.87;13.30;;;;;;;9.80;72.69;101500.34;4962018;28;98512;-73
2020/12/21 06:00:10;;;;;;;14.88;11.80;;;;;;;9.83;72.45;101498.53;4958843;28;99004;-73
2020/12/21 06:02:37;;;;;;;17.83;13.98;;;;;;;9.79;72.68;101504.72;4959800;28;97599;-71
2020/12/21 06:05:06;;;;;;;15.35;12.57;;;;;;;9.75;72.92;101505.72;4966571;28;99143;-71
2020/12/21 06:07:33;;;;;;;17.52;12.52;;;;;;;9.75;73.32;101508.31;4958730;28;98639;-73
2020/12/21 06:10:02;;;;;;;14.45;12.40;;;;;;;9.65;74.02;101502.50;4963964;28;98448;-73
2020/12/21 06:12:30;;;;;;;19.92;13.75;;;;;;;9.56;74.30;101504.47;4971323;28;96590;-72
2020/12/21 06:15:01;;;;;;;17.42;13.45;;;;;;;9.58;74.28;101510.50;4952411;28;98751;-72
2020/12/21 06:17:29;;;;;;;16.65;13.55;;;;;;;9.52;74.63;101513.25;4953304;28;98875;-72
2020/12/21 06:20:04;;;;;;;16.02;13.93;;;;;;;9.42;74.85;101520.44;4968439;28;98603;-71
2020/12/21 06:22:30;;;;;;;18.75;14.60;;;;;;;9.57;74.14;101533.06;4966893;28;96923;-68
2020/12/21 06:24:57;;;;;;;24.70;16.73;;;;;;;9.54;74.43;101529.72;4969969;28;97163;-69
2020/12/21 06:27:24;;;;;;;19.98;15.13;;;;;;;9.44;74.60;101524.72;4969623;28;97757;-66
2020/12/21 06:29:58;;;;;;;22.40;14.70;;;;;;;9.41;74.73;101523.94;4970369;28;98636;-71
2020/12/21 06:32:31;;;;;;;20.58;15.90;;;;;;;9.36;74.97;101524.03;4968157;28;96747;-67
2020/12/21 06:34:58;;;;;;;18.77;14.55;;;;;;;9.29;75.28;101521.63;4967584;28;96532;-79
2020/12/21 06:37:25;;;;;;;18.73;15.38;;;;;;;9.19;75.69;101529.66;4969612;28;99016;-80
2020/12/21 06:40:17;;;;;;;24.85;16.08;;;;;;;9.18;75.60;101538.38;4971103;28;97823;-80
2020/12/21 06:42:44;;;;;;;18.98;14.80;;;;;;;9.16;75.45;101544.47;4949867;28;96777;-82
2020/12/21 06:45:11;;;;;;;23.33;16.00;;;;;;;9.15;75.38;101538.41;4971475;28;96657;-81
2020/12/21 06:47:37;;;;;;;20.55;16.27;;;;;;;9.13;75.30;101548.03;4949885;28;98614;-81
2020/12/21 06:50:04;;;;;;;25.95;17.05;;;;;;;9.23;74.68;101550.41;4962452;28;98652;-81
2020/12/21 06:52:30;;;;;;;19.70;14.80;;;;;;;9.28;74.14;101544.22;4967861;28;97252;-80
2020/12/21 06:54:57;;;;;;;23.00;17.33;;;;;;;9.15;74.62;101543.63;4967881;28;97154;-78
2020/12/21 06:57:23;;;;;;;24.42;16.92;;;;;;;9.26;74.16;101550.31;4968778;28;98801;-76
2020/12/21 06:59:56;;;;;;;19.73;14.38;;;;;;;9.41;73.21;101557.75;4967911;28;99151;-78
2020/12/21 07:02:22;;;;;;;22.20;16.10;;;;;;;9.32;73.52;101551.06;4969207;28;96800;-76
2020/12/21 07:04:48;;;;;;;21.92;15.93;;;;;;;9.22;74.31;101546.97;4940707;28;96817;-77
2020/12/21 07:07:17;;;;;;;23.00;15.98;;;;;;;9.30;73.62;101546.75;4956647;28;98670;-77
2020/12/21 07:09:43;;;;;;;20.73;15.52;;;;;;;9.39;72.96;101550.00;4968270;28;98416;-74
2020/12/21 07:12:10;;;;;;;21.30;16.38;;;;;;;9.38;72.46;101558.72;4971181;28;96974;-74
2020/12/21 07:14:40;;;;;;;21.30;15.55;;;;;;;9.28;73.27;101569.38;4969827;28;96753;-78
2020/12/21 07:17:12;;;;;;;22.70;18.35;;;;;;;9.35;72.93;101568.31;4970084;28;98612;-75
2020/12/21 07:19:40;;;;;;;23.67;17.42;;;;;;;9.24;73.48;101573.78;4965008;28;98451;-74
2020/12/21 07:22:06;;;;;;;26.13;16.70;;;;;;;9.28;73.32;101575.44;4966747;28;97046;-64
2020/12/21 07:24:34;;;;;;;24.98;17.10;;;;;;;9.35;72.79;101571.78;4965650;28;96693;-63
2020/12/21 07:27:01;;;;;;;30.75;20.23;;;;;;;9.22;73.82;101582.53;4969333;28;98472;-67
2020/12/21 07:29:37;;;;;;;26.23;17.70;;;;;;;8.99;74.46;101581.28;4969747;28;98560;-64
2020/12/21 07:32:04;;;;;;;29.33;17.17;;;;;;;9.08;73.93;101583.69;4970198;28;96635;-73
2020/12/21 07:34:31;;;;;;;29.20;20.10;;;;;;;9.23;72.68;101592.91;4951187;28;97108;-69
2020/12/21 07:36:57;;;;;;;28.58;18.35;;;;;;;9.18;73.81;101592.16;4970518;28;98575;-69
2020/12/21 07:39:24;;;;;;;30.92;18.17;;;;;;;9.19;73.75;101606.84;4973071;28;98683;-68
2020/12/21 07:41:52;;;;;;;30.92;20.33;;;;;;;9.18;74.25;101607.75;4972922;28;96617;-65
2020/12/21 07:44:33;;;;;;;25.27;19.40;;;;;;;9.16;74.94;101612.13;4922454;28;97668;-66
2020/12/21 07:47:24;;;;;;;29.55;20.55;;;;;;;9.24;74.58;101611.97;4956967;28;98531;-67
2020/12/21 07:49:51;;;;;;;31.35;18.35;;;;;;;9.29;74.15;101607.50;4958550;28;98565;-65
2020/12/21 07:52:17;;;;;;;28.50;19.73;;;;;;;9.34;74.34;101605.66;4959351;28;96867;-65
2020/12/21 07:54:44;;;;;;;27.42;17.30;;;;;;;9.31;74.16;101596.16;4952038;28;97032;-67
2020/12/21 07:57:14;;;;;;;21.58;16.58;;;;;;;9.44;73.88;101584.59;4972573;28;98469;-67
2020/12/21 07:59:41;;;;;;;23.60;17.42;;;;;;;9.49;73.67;101586.22;4970111;28;98544;-65
2020/12/21 08:02:09;;;;;;;22.98;17.40;;;;;;;9.48;73.91;101603.59;4965004;28;97698;-63
2020/12/21 08:04:35;;;;;;;24.85;17.60;;;;;;;9.42;74.59;101604.56;4970481;28;97176;-63
2020/12/21 08:07:05;;;;;;;27.98;20.00;;;;;;;9.35;75.50;101607.38;4969547;28;98659;-66
2020/12/21 08:09:32;;;;;;;28.88;20.65;;;;;;;9.50;74.72;101611.34;4971024;28;100313;-67
2020/12/21 08:11:59;;;;;;;23.90;17.63;;;;;;;9.57;74.72;101616.38;4969165;28;98105;-67
2020/12/21 08:14:26;;;;;;;23.13;18.60;;;;;;;9.65;74.76;101605.78;4966402;28;97002;-67
2020/12/21 08:16:52;;;;;;;25.42;19.35;;;;;;;9.59;75.06;101612.00;4970072;28;98487;-67
2020/12/21 08:19:21;;;;;;;25.55;19.27;;;;;;;9.62;75.00;101606.69;4962566;28;99309;-66
2020/12/21 08:21:48;;;;;;;29.17;20.33;;;;;;;9.68;75.16;101600.50;4957378;28;97934;-67
2020/12/21 08:24:15;;;;;;;28.63;20.92;;;;;;;9.70;75.17;101615.19;4961694;28;97490;-67
2020/12/21 08:26:42;;;;;;;24.77;20.27;;;;;;;9.74;74.80;101613.34;4957540;28;98730;-67
2020/12/21 08:29:17;;;;;;;33.35;21.38;;;;;;;9.72;74.72;101612.53;4957183;28;98791;-67
2020/12/21 08:31:43;;;;;;;31.88;19.95;;;;;;;9.74;75.26;101613.34;4927009;28;97549;-67
2020/12/21 08:34:14;;;;;;;28.73;21.02;;;;;;;9.75;74.58;101619.41;4955591;28;98024;-66
2020/12/21 08:36:41;;;;;;;24.27;16.67;;;;;;;9.87;73.93;101617.38;4941594;28;98643;-64
2020/12/21 08:39:24;;;;;;;25.75;17.05;;;;;;;9.91;73.67;101616.41;4955682;28;98478;-68
2020/12/21 08:41:58;;;;;;;25.95;17.98;;;;;;;9.92;73.78;101614.66;4957734;28;97502;-65
2020/12/21 08:44:25;;;;;;;27.42;17.08;;;;;;;9.85;73.75;101621.75;4959928;28;96725;-66
2020/12/21 08:46:58;;;;;;;29.77;17.73;;;;;;;9.80;74.26;101621.03;4958082;28;100435;-66
2020/12/21 08:49:27;;;;;;;29.48;18.45;;;;;;;9.84;74.39;101617.44;4954921;28;101649;-66
2020/12/21 08:52:00;;;;;;;22.55;17.80;;;;;;;9.89;74.03;101628.59;4957397;28;97606;-65
2020/12/21 08:54:28;;;;;;;22.42;18.33;;;;;;;9.86;73.69;101628.69;4956872;28;98030;-66
2020/12/21 08:56:57;;;;;;;28.38;19.95;;;;;;;9.94;73.48;101634.56;4942526;28;98501;-66
2020/12/21 08:59:23;;;;;;;24.15;15.98;;;;;;;9.91;74.14;101636.41;4965839;28;98452;-66
2020/12/21 09:01:49;;;;;;;26.98;17.65;;;;;;;9.92;74.07;101646.78;4958631;28;99953;-66
2020/12/21 09:04:16;;;;;;;26.40;18.60;;;;;;;9.93;73.95;101648.47;4962531;28;96690;-66
2020/12/21 09:06:42;;;;;;;24.70;17.60;;;;;;;10.01;73.63;101661.28;4964556;28;98632;-66
2020/12/21 09:09:09;;;;;;;25.58;19.10;;;;;;;9.93;73.66;101666.72;4961857;28;98571;-67
2020/12/21 09:11:35;;;;;;;28.63;18.75;;;;;;;9.70;74.77;101677.69;4961187;28;97084;-66
2020/12/21 09:14:02;;;;;;;24.70;18.48;;;;;;;9.80;74.56;101674.84;4951583;28;96848;-66
2020/12/21 09:16:29;;;;;;;34.28;20.17;;;;;;;9.88;74.33;101678.13;4969525;28;98611;-65
2020/12/21 09:18:57;;;;;;;25.65;18.45;;;;;;;9.95;74.06;101684.91;4960890;28;98703;-65
2020/12/21 09:21:28;;;;;;;25.30;17.77;;;;;;;9.88;74.85;101676.38;4957717;28;97176;-64
2020/12/21 09:23:55;;;;;;;25.58;16.75;;;;;;;9.79;74.41;101689.63;4964696;28;96751;-65
2020/12/21 09:26:22;;;;;;;24.17;18.65;;;;;;;9.92;73.95;101682.38;4937715;28;98998;-66
2020/12/21 09:28:49;;;;;;;22.30;15.88;;;;;;;10.03;73.84;101679.50;4960684;28;98315;-66
2020/12/21 09:31:16;;;;;;;22.02;16.45;;;;;;;10.05;73.48;101680.31;4964488;28;96705;-67
2020/12/21 09:33:48;;;;;;;25.08;17.65;;;;;;;10.06;73.48;101669.00;4969003;28;97158;-66
2020/12/21 09:36:15;;;;;;;24.25;17.60;;;;;;;10.13;73.19;101665.38;4968603;28;98738;-65
2020/12/21 09:38:43;;;;;;;27.33;17.77;;;;;;;10.13;73.24;101660.16;4956659;28;98686;-65
2020/12/21 09:41:09;;;;;;;26.50;18.60;;;;;;;10.20;73.19;101661.69;4968540;28;96960;-67
2020/12/21 09:43:36;;;;;;;21.52;16.92;;;;;;;10.12;73.47;101666.22;4968903;28;97378;-65
2020/12/21 09:46:02;;;;;;;27.65;19.20;;;;;;;9.93;73.56;101674.53;4968353;28;98550;-66
2020/12/21 09:48:29;;;;;;;24.17;17.73;;;;;;;9.93;73.52;101674.53;4969085;28;98435;-67
2020/12/21 09:50:55;;;;;;;27.63;18.52;;;;;;;9.95;73.27;101666.66;4958347;28;100438;-66
2020/12/21 09:53:21;;;;;;;21.50;16.60;;;;;;;9.89;73.40;101665.06;4957157;28;97609;-66
2020/12/21 09:55:48;;;;;;;22.33;16.17;;;;;;;9.96;73.53;101668.41;4957890;28;98552;-66
2020/12/21 09:58:14;;;;;;;22.02;17.35;;;;;;;9.91;73.58;101665.91;4962196;28;98491;-65
2020/12/21 10:00:41;;;;;;;25.27;16.63;;;;;;;10.07;73.06;101660.31;4959738;28;96616;-66
2020/12/21 10:03:07;;;;;;;20.80;16.40;;;;;;;9.87;73.65;101653.84;4957803;28;98846;-66
2020/12/21 10:05:33;;;;;;;23.25;16.85;;;;;;;9.82;73.83;101654.84;4956597;28;99451;-66
2020/12/21 10:08:00;;;;;;;22.13;16.98;;;;;;;9.95;73.46;101654.50;4956694;28;98712;-66
2020/12/21 10:10:26;;;;;;;21.52;17.45;;;;;;;9.98;73.49;101650.97;4955828;28;97861;-66
2020/12/21 10:12:52;;;;;;;23.58;18.80;;;;;;;10.12;72.67;101648.88;4954210;28;98607;-66
2020/12/21 10:15:19;;;;;;;21.05;16.05;;;;;;;10.15;72.75;101643.56;4961095;28;98508;-64
2020/12/21 10:17:45;;;;;;;24.30;18.45;;;;;;;10.08;73.01;101643.78;4956017;28;99496;-64
2020/12/21 10:20:11;;;;;;;21.98;18.77;;;;;;;10.10;72.73;101631.56;4956019;28;97041;-65
2020/12/21 10:22:38;;;;;;;23.00;18.55;;;;;;;10.15;72.36;101627.94;4955917;28;97274;-64
2020/12/21 10:25:04;;;;;;;23.60;18.58;;;;;;;10.11;72.70;101628.91;4957822;28;99134;-65
2020/12/21 10:27:31;;;;;;;23.63;17.92;;;;;;;10.20;72.17;101615.63;4962806;28;98305;-65
2020/12/21 10:29:58;;;;;;;21.80;17.52;;;;;;;10.28;71.91;101610.28;4944430;28;97613;-65
2020/12/21 10:32:24;;;;;;;37.28;26.75;;;;;;;10.30;71.86;101605.88;4961136;28;101189;-65
2020/12/21 10:34:50;;;;;;;27.05;21.08;;;;;;;10.32;71.84;101603.19;4957642;28;99825;-65
2020/12/21 10:37:17;;;;;;;28.17;20.98;;;;;;;10.25;72.09;101605.13;4944711;28;98582;-64
2020/12/21 10:39:49;;;;;;;27.35;20.58;;;;;;;10.27;72.83;101598.13;4953907;28;101253;-65
2020/12/21 10:42:16;;;;;;;27.33;20.38;;;;;;;10.34;72.39;101596.22;4954479;28;99940;-65
2020/12/21 10:44:42;;;;;;;29.63;19.38;;;;;;;10.38;72.14;101598.66;4955622;28;98638;-65
2020/12/21 10:47:08;;;;;;;25.90;19.55;;;;;;;10.39;71.38;101592.59;4953491;28;99237;-64
2020/12/21 10:49:36;;;;;;;21.83;18.13;;;;;;;10.39;71.56;101594.34;4942553;28;99371;-66
2020/12/21 10:52:02;;;;;;;24.33;18.23;;;;;;;10.33;71.25;101597.09;4939459;28;97836;-63
2020/12/21 10:54:28;;;;;;;23.35;17.60;;;;;;;10.33;71.44;101589.28;4936916;28;98478;-62
2020/12/21 10:56:55;;;;;;;25.65;19.73;;;;;;;10.50;71.02;101597.50;4955989;28;98490;-62
2020/12/21 10:59:21;;;;;;;25.55;20.52;;;;;;;10.48;70.95;101589.69;4967079;28;96758;-64
2020/12/21 11:01:48;;;;;;;23.38;18.00;;;;;;;10.60;70.22;101582.41;4960316;28;96671;-67
2020/12/21 11:04:14;;;;;;;21.38;18.15;;;;;;;10.62;70.16;101578.03;4939128;28;97568;-62
2020/12/21 11:06:41;;;;;;;23.33;17.38;;;;;;;10.60;69.44;101582.41;4954857;28;99354;-63
2020/12/21 11:09:07;;;;;;;25.70;20.13;;;;;;;10.53;70.18;101580.91;4956854;28;98050;-63
2020/12/21 11:11:34;;;;;;;23.27;17.13;;;;;;;10.62;70.44;101576.28;4960824;28;98027;-63
2020/12/21 11:14:03;;;;;;;23.55;19.30;;;;;;;10.67;70.00;101574.41;4959181;28;98515;-63
2020/12/21 11:16:30;;;;;;;22.92;18.17;;;;;;;10.69;69.93;101576.94;4961971;28;98463;-62